sensor_id;sensor_type;location;lat;lon;timestamp;P1;durP1;ratioP1;P2;durP2;ratioP2
63807;SDS011;49961;43.970;22.868;2023-05-07T00:00:58;9.50;;;7.23;;
63807;SDS011;49961;43.970;22.868;2023-05-07T00:01:59;13.40;;;7.23;;
63807;SDS011;49961;43.970;22.868;2023-05-07T00:03:00;13.53;;;7.13;;
63807;SDS011;49961;43.970;22.868;2023-05-07T00:04:01;15.70;;;6.90;;
63807;SDS011;49961;43.970;22.868;2023-05-07T00:05:02;8.73;;;6.70;;
63807;SDS011;49961;43.970;22.868;2023-05-07T00:06:03;7.77;;;6.10;;
63807;SDS011;49961;43.970;22.868;2023-05-07T00:07:04;10.63;;;7.30;;
63807;SDS011;49961;43.970;22.868;2023-05-07T00:08:04;10.50;;;6.60;;
63807;SDS011;49961;43.970;22.868;2023-05-07T00:09:05;9.50;;;6.17;;
63807;SDS011;49961;43.970;22.868;2023-05-07T00:10:06;7.33;;;5.80;;
63807;SDS011;49961;43.970;22.868;2023-05-07T00:11:07;13.33;;;6.30;;
63807;SDS011;49961;43.970;22.868;2023-05-07T00:12:08;9.83;;;6.37;;
63807;SDS011;49961;43.970;22.868;2023-05-07T00:13:08;9.67;;;5.97;;
63807;SDS011;49961;43.970;22.868;2023-05-07T00:14:08;8.60;;;6.20;;
63807;SDS011;49961;43.970;22.868;2023-05-07T00:15:09;7.30;;;5.93;;
63807;SDS011;49961;43.970;22.868;2023-05-07T00:16:10;10.10;;;5.87;;
63807;SDS011;49961;43.970;22.868;2023-05-07T00:17:10;8.43;;;5.73;;
63807;SDS011;49961;43.970;22.868;2023-05-07T00:18:11;8.50;;;6.10;;
63807;SDS011;49961;43.970;22.868;2023-05-07T00:19:11;10.10;;;5.93;;
63807;SDS011;49961;43.970;22.868;2023-05-07T00:20:12;6.70;;;5.40;;
63807;SDS011;49961;43.970;22.868;2023-05-07T00:21:12;7.50;;;5.80;;
63807;SDS011;49961;43.970;22.868;2023-05-07T00:22:13;7.40;;;6.17;;
63807;SDS011;49961;43.970;22.868;2023-05-07T00:23:13;8.00;;;5.90;;
63807;SDS011;49961;43.970;22.868;2023-05-07T00:24:13;8.37;;;6.60;;
63807;SDS011;49961;43.970;22.868;2023-05-07T00:25:14;9.93;;;6.37;;
63807;SDS011;49961;43.970;22.868;2023-05-07T00:26:14;9.20;;;6.17;;
63807;SDS011;49961;43.970;22.868;2023-05-07T00:27:15;8.13;;;6.33;;
63807;SDS011;49961;43.970;22.868;2023-05-07T00:28:15;10.00;;;6.80;;
63807;SDS011;49961;43.970;22.868;2023-05-07T00:29:16;7.10;;;6.00;;
63807;SDS011;49961;43.970;22.868;2023-05-07T00:30:16;7.70;;;6.50;;
63807;SDS011;49961;43.970;22.868;2023-05-07T00:31:17;10.37;;;6.83;;
63807;SDS011;49961;43.970;22.868;2023-05-07T00:32:17;9.47;;;6.93;;
63807;SDS011;49961;43.970;22.868;2023-05-07T00:33:17;10.10;;;7.20;;
63807;SDS011;49961;43.970;22.868;2023-05-07T00:34:20;9.23;;;6.67;;
63807;SDS011;49961;43.970;22.868;2023-05-07T00:35:20;8.50;;;6.67;;
63807;SDS011;49961;43.970;22.868;2023-05-07T00:36:21;8.37;;;6.07;;
63807;SDS011;49961;43.970;22.868;2023-05-07T00:37:21;7.80;;;5.70;;
63807;SDS011;49961;43.970;22.868;2023-05-07T00:38:21;7.23;;;5.80;;
63807;SDS011;49961;43.970;22.868;2023-05-07T00:39:22;8.13;;;5.97;;
63807;SDS011;49961;43.970;22.868;2023-05-07T00:40:22;10.33;;;6.07;;
63807;SDS011;49961;43.970;22.868;2023-05-07T00:41:23;9.23;;;5.90;;
63807;SDS011;49961;43.970;22.868;2023-05-07T00:42:23;9.73;;;7.30;;
63807;SDS011;49961;43.970;22.868;2023-05-07T00:43:24;8.10;;;6.33;;
63807;SDS011;49961;43.970;22.868;2023-05-07T00:44:24;7.93;;;6.67;;
63807;SDS011;49961;43.970;22.868;2023-05-07T00:45:26;9.53;;;6.87;;
63807;SDS011;49961;43.970;22.868;2023-05-07T00:46:27;8.50;;;6.93;;
63807;SDS011;49961;43.970;22.868;2023-05-07T00:47:30;9.90;;;6.87;;
63807;SDS011;49961;43.970;22.868;2023-05-07T00:48:31;7.60;;;6.80;;
63807;SDS011;49961;43.970;22.868;2023-05-07T00:49:39;10.77;;;5.90;;
63807;SDS011;49961;43.970;22.868;2023-05-07T00:50:42;8.83;;;6.13;;
63807;SDS011;49961;43.970;22.868;2023-05-07T00:51:43;10.17;;;6.13;;
63807;SDS011;49961;43.970;22.868;2023-05-07T00:52:44;8.57;;;6.27;;
63807;SDS011;49961;43.970;22.868;2023-05-07T00:53:45;9.03;;;6.60;;
63807;SDS011;49961;43.970;22.868;2023-05-07T00:54:47;9.63;;;6.63;;
63807;SDS011;49961;43.970;22.868;2023-05-07T00:55:48;9.07;;;6.63;;
63807;SDS011;49961;43.970;22.868;2023-05-07T00:56:48;7.00;;;6.30;;
63807;SDS011;49961;43.970;22.868;2023-05-07T00:57:49;9.70;;;6.37;;
63807;SDS011;49961;43.970;22.868;2023-05-07T00:58:50;7.37;;;6.53;;
63807;SDS011;49961;43.970;22.868;2023-05-07T00:59:51;9.83;;;6.63;;
63807;SDS011;49961;43.970;22.868;2023-05-07T01:00:52;8.60;;;6.33;;
63807;SDS011;49961;43.970;22.868;2023-05-07T01:01:52;7.20;;;6.00;;
63807;SDS011;49961;43.970;22.868;2023-05-07T01:02:53;8.17;;;5.97;;
63807;SDS011;49961;43.970;22.868;2023-05-07T01:03:53;9.13;;;6.20;;
63807;SDS011;49961;43.970;22.868;2023-05-07T01:04:54;7.53;;;6.10;;
63807;SDS011;49961;43.970;22.868;2023-05-07T01:05:55;9.17;;;6.17;;
63807;SDS011;49961;43.970;22.868;2023-05-07T01:06:58;7.90;;;6.17;;
63807;SDS011;49961;43.970;22.868;2023-05-07T01:08:01;8.17;;;6.10;;
63807;SDS011;49961;43.970;22.868;2023-05-07T01:09:02;6.83;;;5.87;;
63807;SDS011;49961;43.970;22.868;2023-05-07T01:10:04;8.07;;;5.57;;
63807;SDS011;49961;43.970;22.868;2023-05-07T01:11:09;6.20;;;5.20;;
63807;SDS011;49961;43.970;22.868;2023-05-07T01:12:11;8.60;;;5.63;;
63807;SDS011;49961;43.970;22.868;2023-05-07T01:13:12;6.80;;;5.27;;
63807;SDS011;49961;43.970;22.868;2023-05-07T01:14:14;6.37;;;5.50;;
63807;SDS011;49961;43.970;22.868;2023-05-07T01:15:14;6.80;;;5.13;;
63807;SDS011;49961;43.970;22.868;2023-05-07T01:16:15;7.87;;;5.30;;
63807;SDS011;49961;43.970;22.868;2023-05-07T01:17:16;7.17;;;5.40;;
63807;SDS011;49961;43.970;22.868;2023-05-07T01:18:17;7.80;;;5.83;;
63807;SDS011;49961;43.970;22.868;2023-05-07T01:19:18;7.73;;;5.23;;
63807;SDS011;49961;43.970;22.868;2023-05-07T01:20:19;7.20;;;5.53;;
63807;SDS011;49961;43.970;22.868;2023-05-07T01:21:20;9.57;;;5.30;;
63807;SDS011;49961;43.970;22.868;2023-05-07T01:22:30;9.17;;;5.47;;
63807;SDS011;49961;43.970;22.868;2023-05-07T01:23:32;7.17;;;5.67;;
63807;SDS011;49961;43.970;22.868;2023-05-07T01:24:34;13.13;;;6.20;;
63807;SDS011;49961;43.970;22.868;2023-05-07T01:25:36;11.53;;;5.80;;
63807;SDS011;49961;43.970;22.868;2023-05-07T01:26:38;11.63;;;6.20;;
63807;SDS011;49961;43.970;22.868;2023-05-07T01:27:39;11.13;;;6.20;;
63807;SDS011;49961;43.970;22.868;2023-05-07T01:28:39;9.77;;;6.00;;
63807;SDS011;49961;43.970;22.868;2023-05-07T01:29:39;14.03;;;6.07;;
63807;SDS011;49961;43.970;22.868;2023-05-07T01:30:40;14.00;;;6.80;;
63807;SDS011;49961;43.970;22.868;2023-05-07T01:31:44;12.30;;;5.70;;
63807;SDS011;49961;43.970;22.868;2023-05-07T01:33:09;10.83;;;5.70;;
63807;SDS011;49961;43.970;22.868;2023-05-07T01:34:09;9.40;;;5.80;;
63807;SDS011;49961;43.970;22.868;2023-05-07T01:35:13;8.57;;;5.90;;
63807;SDS011;49961;43.970;22.868;2023-05-07T01:36:18;9.10;;;6.00;;
63807;SDS011;49961;43.970;22.868;2023-05-07T01:37:21;7.93;;;5.53;;
63807;SDS011;49961;43.970;22.868;2023-05-07T01:38:22;5.73;;;5.13;;
63807;SDS011;49961;43.970;22.868;2023-05-07T01:39:27;7.63;;;5.37;;
63807;SDS011;49961;43.970;22.868;2023-05-07T01:40:29;7.60;;;5.40;;
63807;SDS011;49961;43.970;22.868;2023-05-07T01:41:30;6.83;;;5.50;;
63807;SDS011;49961;43.970;22.868;2023-05-07T01:42:30;7.10;;;5.47;;
63807;SDS011;49961;43.970;22.868;2023-05-07T01:43:31;6.77;;;5.10;;
63807;SDS011;49961;43.970;22.868;2023-05-07T01:44:32;8.40;;;5.40;;
63807;SDS011;49961;43.970;22.868;2023-05-07T01:45:33;8.17;;;5.37;;
63807;SDS011;49961;43.970;22.868;2023-05-07T01:46:34;6.53;;;5.17;;
63807;SDS011;49961;43.970;22.868;2023-05-07T01:47:38;6.70;;;5.27;;
63807;SDS011;49961;43.970;22.868;2023-05-07T01:48:39;6.97;;;5.73;;
63807;SDS011;49961;43.970;22.868;2023-05-07T01:49:41;7.40;;;5.03;;
63807;SDS011;49961;43.970;22.868;2023-05-07T01:50:42;8.47;;;5.23;;
63807;SDS011;49961;43.970;22.868;2023-05-07T01:51:44;8.27;;;5.60;;
63807;SDS011;49961;43.970;22.868;2023-05-07T01:52:45;6.63;;;5.53;;
63807;SDS011;49961;43.970;22.868;2023-05-07T01:53:46;7.00;;;5.87;;
63807;SDS011;49961;43.970;22.868;2023-05-07T01:54:50;7.03;;;5.73;;
63807;SDS011;49961;43.970;22.868;2023-05-07T01:55:51;6.00;;;5.40;;
63807;SDS011;49961;43.970;22.868;2023-05-07T01:56:51;9.23;;;5.83;;
63807;SDS011;49961;43.970;22.868;2023-05-07T01:57:51;12.23;;;5.67;;
63807;SDS011;49961;43.970;22.868;2023-05-07T01:58:52;10.20;;;4.87;;
63807;SDS011;49961;43.970;22.868;2023-05-07T01:59:52;8.83;;;5.13;;
63807;SDS011;49961;43.970;22.868;2023-05-07T02:00:53;9.23;;;5.13;;
63807;SDS011;49961;43.970;22.868;2023-05-07T02:01:53;9.47;;;5.57;;
63807;SDS011;49961;43.970;22.868;2023-05-07T02:02:53;6.93;;;5.37;;
63807;SDS011;49961;43.970;22.868;2023-05-07T02:03:54;5.83;;;5.23;;
63807;SDS011;49961;43.970;22.868;2023-05-07T02:04:54;5.93;;;5.10;;
63807;SDS011;49961;43.970;22.868;2023-05-07T02:05:55;6.73;;;5.10;;
63807;SDS011;49961;43.970;22.868;2023-05-07T02:06:55;7.37;;;5.33;;
63807;SDS011;49961;43.970;22.868;2023-05-07T02:07:56;6.23;;;5.00;;
63807;SDS011;49961;43.970;22.868;2023-05-07T02:08:56;5.90;;;5.30;;
63807;SDS011;49961;43.970;22.868;2023-05-07T02:09:57;7.73;;;5.40;;
63807;SDS011;49961;43.970;22.868;2023-05-07T02:10:57;7.37;;;5.30;;
63807;SDS011;49961;43.970;22.868;2023-05-07T02:11:57;7.57;;;5.80;;
63807;SDS011;49961;43.970;22.868;2023-05-07T02:12:58;5.93;;;5.17;;
63807;SDS011;49961;43.970;22.868;2023-05-07T02:13:59;6.20;;;5.47;;
63807;SDS011;49961;43.970;22.868;2023-05-07T02:15:00;7.53;;;5.20;;
63807;SDS011;49961;43.970;22.868;2023-05-07T02:16:00;6.80;;;5.47;;
63807;SDS011;49961;43.970;22.868;2023-05-07T02:17:02;7.83;;;5.60;;
63807;SDS011;49961;43.970;22.868;2023-05-07T02:19:04;8.60;;;5.40;;
63807;SDS011;49961;43.970;22.868;2023-05-07T02:20:05;8.63;;;6.00;;
63807;SDS011;49961;43.970;22.868;2023-05-07T02:21:07;7.03;;;5.17;;
63807;SDS011;49961;43.970;22.868;2023-05-07T02:22:07;7.00;;;4.33;;
63807;SDS011;49961;43.970;22.868;2023-05-07T02:23:08;13.00;;;4.70;;
63807;SDS011;49961;43.970;22.868;2023-05-07T02:24:08;7.17;;;5.40;;
63807;SDS011;49961;43.970;22.868;2023-05-07T02:25:09;5.07;;;4.30;;
63807;SDS011;49961;43.970;22.868;2023-05-07T02:26:10;7.20;;;5.20;;
63807;SDS011;49961;43.970;22.868;2023-05-07T02:27:11;9.57;;;5.43;;
63807;SDS011;49961;43.970;22.868;2023-05-07T02:28:11;6.07;;;4.90;;
63807;SDS011;49961;43.970;22.868;2023-05-07T02:29:12;6.93;;;5.07;;
63807;SDS011;49961;43.970;22.868;2023-05-07T02:30:13;7.30;;;5.20;;
63807;SDS011;49961;43.970;22.868;2023-05-07T02:31:13;7.00;;;5.20;;
63807;SDS011;49961;43.970;22.868;2023-05-07T02:32:14;7.57;;;5.03;;
63807;SDS011;49961;43.970;22.868;2023-05-07T02:33:14;8.33;;;5.63;;
63807;SDS011;49961;43.970;22.868;2023-05-07T02:34:15;8.07;;;5.20;;
63807;SDS011;49961;43.970;22.868;2023-05-07T02:35:15;7.57;;;5.47;;
63807;SDS011;49961;43.970;22.868;2023-05-07T02:36:16;8.10;;;5.80;;
63807;SDS011;49961;43.970;22.868;2023-05-07T02:37:16;10.23;;;5.57;;
63807;SDS011;49961;43.970;22.868;2023-05-07T02:38:16;9.80;;;5.90;;
63807;SDS011;49961;43.970;22.868;2023-05-07T02:39:17;7.13;;;6.00;;
63807;SDS011;49961;43.970;22.868;2023-05-07T02:40:18;12.30;;;6.17;;
63807;SDS011;49961;43.970;22.868;2023-05-07T02:41:18;12.23;;;6.57;;
63807;SDS011;49961;43.970;22.868;2023-05-07T02:42:18;13.57;;;5.87;;
63807;SDS011;49961;43.970;22.868;2023-05-07T02:43:19;7.83;;;5.30;;
63807;SDS011;49961;43.970;22.868;2023-05-07T02:44:19;10.47;;;5.50;;
63807;SDS011;49961;43.970;22.868;2023-05-07T02:45:20;7.20;;;5.20;;
63807;SDS011;49961;43.970;22.868;2023-05-07T02:46:20;8.33;;;5.63;;
63807;SDS011;49961;43.970;22.868;2023-05-07T02:47:21;9.87;;;5.67;;
63807;SDS011;49961;43.970;22.868;2023-05-07T02:48:21;7.10;;;4.97;;
63807;SDS011;49961;43.970;22.868;2023-05-07T02:49:21;6.67;;;4.87;;
63807;SDS011;49961;43.970;22.868;2023-05-07T02:50:22;6.90;;;5.27;;
63807;SDS011;49961;43.970;22.868;2023-05-07T02:51:22;6.83;;;5.10;;
63807;SDS011;49961;43.970;22.868;2023-05-07T02:52:23;9.33;;;4.90;;
63807;SDS011;49961;43.970;22.868;2023-05-07T02:53:24;6.93;;;4.73;;
63807;SDS011;49961;43.970;22.868;2023-05-07T02:54:27;6.63;;;4.60;;
63807;SDS011;49961;43.970;22.868;2023-05-07T02:55:27;5.43;;;4.70;;
63807;SDS011;49961;43.970;22.868;2023-05-07T02:56:28;7.63;;;4.93;;
63807;SDS011;49961;43.970;22.868;2023-05-07T02:57:28;6.40;;;4.63;;
63807;SDS011;49961;43.970;22.868;2023-05-07T02:58:29;7.80;;;5.00;;
63807;SDS011;49961;43.970;22.868;2023-05-07T02:59:29;5.30;;;4.80;;
63807;SDS011;49961;43.970;22.868;2023-05-07T03:00:30;7.20;;;5.00;;
63807;SDS011;49961;43.970;22.868;2023-05-07T03:01:30;5.70;;;4.80;;
63807;SDS011;49961;43.970;22.868;2023-05-07T03:02:30;6.30;;;5.03;;
63807;SDS011;49961;43.970;22.868;2023-05-07T03:03:31;7.43;;;5.03;;
63807;SDS011;49961;43.970;22.868;2023-05-07T03:04:32;7.63;;;4.83;;
63807;SDS011;49961;43.970;22.868;2023-05-07T03:05:32;5.20;;;4.67;;
63807;SDS011;49961;43.970;22.868;2023-05-07T03:06:33;7.03;;;5.27;;
63807;SDS011;49961;43.970;22.868;2023-05-07T03:07:34;6.90;;;5.37;;
63807;SDS011;49961;43.970;22.868;2023-05-07T03:08:35;6.30;;;5.20;;
63807;SDS011;49961;43.970;22.868;2023-05-07T03:09:36;9.52;;;5.45;;
63807;SDS011;49961;43.970;22.868;2023-05-07T03:10:37;10.17;;;5.27;;
63807;SDS011;49961;43.970;22.868;2023-05-07T03:11:37;9.87;;;6.07;;
63807;SDS011;49961;43.970;22.868;2023-05-07T03:12:38;10.03;;;5.63;;
63807;SDS011;49961;43.970;22.868;2023-05-07T03:13:38;8.47;;;5.17;;
63807;SDS011;49961;43.970;22.868;2023-05-07T03:14:38;6.23;;;5.37;;
63807;SDS011;49961;43.970;22.868;2023-05-07T03:15:39;7.27;;;5.17;;
63807;SDS011;49961;43.970;22.868;2023-05-07T03:16:39;8.87;;;4.93;;
63807;SDS011;49961;43.970;22.868;2023-05-07T03:17:40;8.13;;;5.03;;
63807;SDS011;49961;43.970;22.868;2023-05-07T03:18:40;11.17;;;5.27;;
63807;SDS011;49961;43.970;22.868;2023-05-07T03:19:41;12.47;;;5.33;;
63807;SDS011;49961;43.970;22.868;2023-05-07T03:20:41;9.60;;;5.20;;
63807;SDS011;49961;43.970;22.868;2023-05-07T03:21:41;8.00;;;4.83;;
63807;SDS011;49961;43.970;22.868;2023-05-07T03:22:42;8.13;;;4.93;;
63807;SDS011;49961;43.970;22.868;2023-05-07T03:23:42;10.13;;;5.10;;
63807;SDS011;49961;43.970;22.868;2023-05-07T03:24:43;5.87;;;4.63;;
63807;SDS011;49961;43.970;22.868;2023-05-07T03:25:43;4.90;;;4.40;;
63807;SDS011;49961;43.970;22.868;2023-05-07T03:27:02;6.60;;;4.30;;
63807;SDS011;49961;43.970;22.868;2023-05-07T03:28:03;7.27;;;4.43;;
63807;SDS011;49961;43.970;22.868;2023-05-07T03:29:03;6.77;;;4.50;;
63807;SDS011;49961;43.970;22.868;2023-05-07T03:30:04;4.83;;;4.33;;
63807;SDS011;49961;43.970;22.868;2023-05-07T03:31:04;7.90;;;4.70;;
63807;SDS011;49961;43.970;22.868;2023-05-07T03:32:05;7.07;;;4.53;;
63807;SDS011;49961;43.970;22.868;2023-05-07T03:33:06;7.10;;;5.07;;
63807;SDS011;49961;43.970;22.868;2023-05-07T03:34:06;5.70;;;4.50;;
63807;SDS011;49961;43.970;22.868;2023-05-07T03:35:07;6.97;;;4.80;;
63807;SDS011;49961;43.970;22.868;2023-05-07T03:36:07;7.30;;;4.20;;
63807;SDS011;49961;43.970;22.868;2023-05-07T03:37:08;8.00;;;5.10;;
63807;SDS011;49961;43.970;22.868;2023-05-07T03:38:08;9.10;;;5.53;;
63807;SDS011;49961;43.970;22.868;2023-05-07T03:39:08;9.43;;;5.10;;
63807;SDS011;49961;43.970;22.868;2023-05-07T03:40:09;10.20;;;5.03;;
63807;SDS011;49961;43.970;22.868;2023-05-07T03:41:10;7.73;;;4.47;;
63807;SDS011;49961;43.970;22.868;2023-05-07T03:42:12;6.23;;;4.37;;
63807;SDS011;49961;43.970;22.868;2023-05-07T03:43:12;10.23;;;4.90;;
63807;SDS011;49961;43.970;22.868;2023-05-07T03:44:12;7.00;;;4.70;;
63807;SDS011;49961;43.970;22.868;2023-05-07T03:45:13;14.17;;;5.30;;
63807;SDS011;49961;43.970;22.868;2023-05-07T03:46:13;10.60;;;5.50;;
63807;SDS011;49961;43.970;22.868;2023-05-07T03:47:14;9.13;;;4.93;;
63807;SDS011;49961;43.970;22.868;2023-05-07T03:48:14;6.93;;;5.07;;
63807;SDS011;49961;43.970;22.868;2023-05-07T03:49:15;8.93;;;4.73;;
63807;SDS011;49961;43.970;22.868;2023-05-07T03:50:15;7.27;;;4.60;;
63807;SDS011;49961;43.970;22.868;2023-05-07T03:51:15;8.63;;;4.87;;
63807;SDS011;49961;43.970;22.868;2023-05-07T03:52:16;11.33;;;5.13;;
63807;SDS011;49961;43.970;22.868;2023-05-07T03:53:22;8.97;;;5.03;;
63807;SDS011;49961;43.970;22.868;2023-05-07T03:54:22;8.87;;;5.07;;
63807;SDS011;49961;43.970;22.868;2023-05-07T03:55:23;6.47;;;4.53;;
63807;SDS011;49961;43.970;22.868;2023-05-07T03:56:23;8.80;;;5.03;;
63807;SDS011;49961;43.970;22.868;2023-05-07T03:57:26;10.23;;;5.53;;
63807;SDS011;49961;43.970;22.868;2023-05-07T03:58:26;9.53;;;4.33;;
63807;SDS011;49961;43.970;22.868;2023-05-07T03:59:27;8.40;;;4.97;;
63807;SDS011;49961;43.970;22.868;2023-05-07T04:00:27;8.10;;;4.90;;
63807;SDS011;49961;43.970;22.868;2023-05-07T04:01:28;6.13;;;5.20;;
63807;SDS011;49961;43.970;22.868;2023-05-07T04:02:28;6.13;;;4.63;;
63807;SDS011;49961;43.970;22.868;2023-05-07T04:03:28;8.07;;;4.80;;
63807;SDS011;49961;43.970;22.868;2023-05-07T04:04:29;7.67;;;5.20;;
63807;SDS011;49961;43.970;22.868;2023-05-07T04:05:32;8.97;;;5.10;;
63807;SDS011;49961;43.970;22.868;2023-05-07T04:06:33;9.10;;;4.47;;
63807;SDS011;49961;43.970;22.868;2023-05-07T04:07:33;8.73;;;5.13;;
63807;SDS011;49961;43.970;22.868;2023-05-07T04:08:34;5.50;;;4.80;;
63807;SDS011;49961;43.970;22.868;2023-05-07T04:09:34;6.87;;;4.67;;
63807;SDS011;49961;43.970;22.868;2023-05-07T04:10:34;8.43;;;4.67;;
63807;SDS011;49961;43.970;22.868;2023-05-07T04:11:35;6.27;;;4.77;;
63807;SDS011;49961;43.970;22.868;2023-05-07T04:12:36;10.63;;;4.50;;
63807;SDS011;49961;43.970;22.868;2023-05-07T04:13:36;6.03;;;4.70;;
63807;SDS011;49961;43.970;22.868;2023-05-07T04:14:36;9.73;;;5.30;;
63807;SDS011;49961;43.970;22.868;2023-05-07T04:15:37;8.23;;;4.57;;
63807;SDS011;49961;43.970;22.868;2023-05-07T04:16:37;8.20;;;4.80;;
63807;SDS011;49961;43.970;22.868;2023-05-07T04:17:38;9.40;;;5.00;;
63807;SDS011;49961;43.970;22.868;2023-05-07T04:18:38;6.70;;;4.97;;
63807;SDS011;49961;43.970;22.868;2023-05-07T04:19:39;6.63;;;4.67;;
63807;SDS011;49961;43.970;22.868;2023-05-07T04:20:39;5.70;;;4.67;;
63807;SDS011;49961;43.970;22.868;2023-05-07T04:21:40;7.77;;;4.80;;
63807;SDS011;49961;43.970;22.868;2023-05-07T04:22:40;7.77;;;4.37;;
63807;SDS011;49961;43.970;22.868;2023-05-07T04:23:41;7.80;;;4.97;;
63807;SDS011;49961;43.970;22.868;2023-05-07T04:24:42;6.07;;;4.60;;
63807;SDS011;49961;43.970;22.868;2023-05-07T04:25:42;5.27;;;4.50;;
63807;SDS011;49961;43.970;22.868;2023-05-07T04:26:43;6.10;;;4.90;;
63807;SDS011;49961;43.970;22.868;2023-05-07T04:27:43;7.07;;;4.70;;
63807;SDS011;49961;43.970;22.868;2023-05-07T04:28:44;10.13;;;5.07;;
63807;SDS011;49961;43.970;22.868;2023-05-07T04:29:44;5.70;;;5.00;;
63807;SDS011;49961;43.970;22.868;2023-05-07T04:30:47;8.90;;;4.80;;
63807;SDS011;49961;43.970;22.868;2023-05-07T04:31:47;7.63;;;4.93;;
63807;SDS011;49961;43.970;22.868;2023-05-07T04:32:48;13.43;;;4.93;;
63807;SDS011;49961;43.970;22.868;2023-05-07T04:33:48;7.90;;;4.73;;
63807;SDS011;49961;43.970;22.868;2023-05-07T04:34:48;6.03;;;4.40;;
63807;SDS011;49961;43.970;22.868;2023-05-07T04:35:49;7.83;;;5.23;;
63807;SDS011;49961;43.970;22.868;2023-05-07T04:36:49;7.47;;;4.43;;
63807;SDS011;49961;43.970;22.868;2023-05-07T04:37:50;6.97;;;4.57;;
63807;SDS011;49961;43.970;22.868;2023-05-07T04:38:50;8.43;;;4.57;;
63807;SDS011;49961;43.970;22.868;2023-05-07T04:39:50;9.43;;;5.07;;
63807;SDS011;49961;43.970;22.868;2023-05-07T04:40:51;9.50;;;4.67;;
63807;SDS011;49961;43.970;22.868;2023-05-07T04:41:51;8.27;;;4.70;;
63807;SDS011;49961;43.970;22.868;2023-05-07T04:42:52;15.03;;;4.77;;
63807;SDS011;49961;43.970;22.868;2023-05-07T04:43:53;6.63;;;4.40;;
63807;SDS011;49961;43.970;22.868;2023-05-07T04:44:53;6.53;;;4.40;;
63807;SDS011;49961;43.970;22.868;2023-05-07T04:45:54;7.83;;;4.50;;
63807;SDS011;49961;43.970;22.868;2023-05-07T04:46:54;6.80;;;4.40;;
63807;SDS011;49961;43.970;22.868;2023-05-07T04:47:55;7.23;;;4.47;;
63807;SDS011;49961;43.970;22.868;2023-05-07T04:48:55;5.87;;;4.70;;
63807;SDS011;49961;43.970;22.868;2023-05-07T04:49:56;8.13;;;4.80;;
63807;SDS011;49961;43.970;22.868;2023-05-07T04:50:58;7.47;;;4.60;;
63807;SDS011;49961;43.970;22.868;2023-05-07T04:51:58;7.10;;;4.57;;
63807;SDS011;49961;43.970;22.868;2023-05-07T04:52:58;8.33;;;5.10;;
63807;SDS011;49961;43.970;22.868;2023-05-07T04:53:59;9.00;;;5.50;;
63807;SDS011;49961;43.970;22.868;2023-05-07T04:55:00;7.23;;;5.77;;
63807;SDS011;49961;43.970;22.868;2023-05-07T04:56:00;9.33;;;5.77;;
63807;SDS011;49961;43.970;22.868;2023-05-07T04:57:02;7.60;;;5.60;;
63807;SDS011;49961;43.970;22.868;2023-05-07T04:58:04;9.97;;;5.73;;
63807;SDS011;49961;43.970;22.868;2023-05-07T04:59:04;8.70;;;5.23;;
63807;SDS011;49961;43.970;22.868;2023-05-07T05:00:05;8.30;;;5.47;;
63807;SDS011;49961;43.970;22.868;2023-05-07T05:01:08;7.70;;;5.67;;
63807;SDS011;49961;43.970;22.868;2023-05-07T05:02:09;7.97;;;5.70;;
63807;SDS011;49961;43.970;22.868;2023-05-07T05:03:10;7.83;;;5.60;;
63807;SDS011;49961;43.970;22.868;2023-05-07T05:04:11;7.80;;;5.73;;
63807;SDS011;49961;43.970;22.868;2023-05-07T05:05:11;7.43;;;5.37;;
63807;SDS011;49961;43.970;22.868;2023-05-07T05:06:12;7.13;;;5.60;;
63807;SDS011;49961;43.970;22.868;2023-05-07T05:07:12;9.63;;;5.30;;
63807;SDS011;49961;43.970;22.868;2023-05-07T05:08:13;9.17;;;5.40;;
63807;SDS011;49961;43.970;22.868;2023-05-07T05:09:13;8.90;;;5.13;;
63807;SDS011;49961;43.970;22.868;2023-05-07T05:10:14;6.20;;;4.90;;
63807;SDS011;49961;43.970;22.868;2023-05-07T05:11:16;7.20;;;4.70;;
63807;SDS011;49961;43.970;22.868;2023-05-07T05:12:16;7.43;;;5.27;;
63807;SDS011;49961;43.970;22.868;2023-05-07T05:13:16;6.97;;;4.67;;
63807;SDS011;49961;43.970;22.868;2023-05-07T05:14:17;8.17;;;5.40;;
63807;SDS011;49961;43.970;22.868;2023-05-07T05:15:17;7.60;;;5.00;;
63807;SDS011;49961;43.970;22.868;2023-05-07T05:16:18;5.67;;;4.93;;
63807;SDS011;49961;43.970;22.868;2023-05-07T05:17:18;6.57;;;4.93;;
63807;SDS011;49961;43.970;22.868;2023-05-07T05:18:19;8.00;;;5.10;;
63807;SDS011;49961;43.970;22.868;2023-05-07T05:19:20;5.80;;;4.93;;
63807;SDS011;49961;43.970;22.868;2023-05-07T05:20:20;7.47;;;5.23;;
63807;SDS011;49961;43.970;22.868;2023-05-07T05:21:21;9.67;;;5.20;;
63807;SDS011;49961;43.970;22.868;2023-05-07T05:22:21;7.73;;;5.07;;
63807;SDS011;49961;43.970;22.868;2023-05-07T05:23:22;5.67;;;4.87;;
63807;SDS011;49961;43.970;22.868;2023-05-07T05:24:22;7.10;;;5.20;;
63807;SDS011;49961;43.970;22.868;2023-05-07T05:25:22;9.53;;;4.90;;
63807;SDS011;49961;43.970;22.868;2023-05-07T05:26:23;9.03;;;5.20;;
63807;SDS011;49961;43.970;22.868;2023-05-07T05:27:23;6.97;;;5.13;;
63807;SDS011;49961;43.970;22.868;2023-05-07T05:28:24;9.00;;;4.90;;
63807;SDS011;49961;43.970;22.868;2023-05-07T05:29:25;9.00;;;5.27;;
63807;SDS011;49961;43.970;22.868;2023-05-07T05:30:25;7.27;;;5.37;;
63807;SDS011;49961;43.970;22.868;2023-05-07T05:31:25;9.33;;;4.97;;
63807;SDS011;49961;43.970;22.868;2023-05-07T05:32:26;6.33;;;4.40;;
63807;SDS011;49961;43.970;22.868;2023-05-07T05:33:26;6.17;;;4.63;;
63807;SDS011;49961;43.970;22.868;2023-05-07T05:34:27;5.40;;;4.27;;
63807;SDS011;49961;43.970;22.868;2023-05-07T05:35:27;10.17;;;4.60;;
63807;SDS011;49961;43.970;22.868;2023-05-07T05:36:28;6.37;;;4.60;;
63807;SDS011;49961;43.970;22.868;2023-05-07T05:37:28;7.10;;;4.50;;
63807;SDS011;49961;43.970;22.868;2023-05-07T05:38:30;7.60;;;4.43;;
63807;SDS011;49961;43.970;22.868;2023-05-07T05:39:30;9.27;;;4.50;;
63807;SDS011;49961;43.970;22.868;2023-05-07T05:40:31;10.57;;;4.27;;
63807;SDS011;49961;43.970;22.868;2023-05-07T05:41:32;8.67;;;4.43;;
63807;SDS011;49961;43.970;22.868;2023-05-07T05:42:32;8.23;;;4.87;;
63807;SDS011;49961;43.970;22.868;2023-05-07T05:43:32;8.80;;;4.50;;
63807;SDS011;49961;43.970;22.868;2023-05-07T05:44:33;7.87;;;4.50;;
63807;SDS011;49961;43.970;22.868;2023-05-07T05:45:33;8.07;;;4.77;;
63807;SDS011;49961;43.970;22.868;2023-05-07T05:46:34;7.70;;;4.40;;
63807;SDS011;49961;43.970;22.868;2023-05-07T05:47:35;9.87;;;4.30;;
63807;SDS011;49961;43.970;22.868;2023-05-07T05:48:35;8.73;;;4.87;;
63807;SDS011;49961;43.970;22.868;2023-05-07T05:49:35;6.87;;;4.40;;
63807;SDS011;49961;43.970;22.868;2023-05-07T05:50:36;11.47;;;4.40;;
63807;SDS011;49961;43.970;22.868;2023-05-07T05:51:36;6.80;;;3.63;;
63807;SDS011;49961;43.970;22.868;2023-05-07T05:52:37;7.10;;;3.83;;
63807;SDS011;49961;43.970;22.868;2023-05-07T05:53:38;7.87;;;4.00;;
63807;SDS011;49961;43.970;22.868;2023-05-07T05:54:38;6.97;;;4.10;;
63807;SDS011;49961;43.970;22.868;2023-05-07T05:55:38;5.40;;;3.43;;
63807;SDS011;49961;43.970;22.868;2023-05-07T05:56:39;6.20;;;3.70;;
63807;SDS011;49961;43.970;22.868;2023-05-07T05:57:39;6.50;;;4.20;;
63807;SDS011;49961;43.970;22.868;2023-05-07T05:58:40;5.73;;;3.97;;
63807;SDS011;49961;43.970;22.868;2023-05-07T05:59:41;5.40;;;3.80;;
63807;SDS011;49961;43.970;22.868;2023-05-07T06:00:41;7.20;;;4.57;;
63807;SDS011;49961;43.970;22.868;2023-05-07T06:01:41;9.23;;;3.90;;
63807;SDS011;49961;43.970;22.868;2023-05-07T06:02:42;9.53;;;4.30;;